createdAt,value
2018-08-12T00:06:46.203Z,47.40
2018-08-12T00:09:17.710Z,48.00
2018-08-12T00:11:49.310Z,48.20
2018-08-12T00:14:20.769Z,48.10
2018-08-12T00:16:52.337Z,48.20
2018-08-12T00:19:23.744Z,48.00
2018-08-12T00:21:55.449Z,48.20
2018-08-12T00:24:26.850Z,48.00
2018-08-12T00:26:58.420Z,48.40
2018-08-12T00:29:29.830Z,48.10
2018-08-12T00:32:01.640Z,48.40
2018-08-12T00:34:33.209Z,48.00
2018-08-12T00:37:04.764Z,48.70
2018-08-12T00:39:36.305Z,48.70
2018-08-12T00:42:07.832Z,48.10
2018-08-12T00:44:39.573Z,48.70
2018-08-12T00:47:17.810Z,48.30
2018-08-12T00:49:49.376Z,48.70
2018-08-12T00:52:20.873Z,48.30
2018-08-12T00:54:52.570Z,48.50
2018-08-12T00:57:24.200Z,48.70
2018-08-12T00:59:55.723Z,48.80
2018-08-12T01:02:27.329Z,48.40
2018-08-12T01:04:58.804Z,49.10
2018-08-12T01:07:30.665Z,48.60
2018-08-12T01:10:02.205Z,48.40
2018-08-12T01:12:33.702Z,48.50
2018-08-12T01:15:06.553Z,48.50
2018-08-12T01:17:38.203Z,48.70
2018-08-12T01:20:12.357Z,48.70
2018-08-12T01:22:44.000Z,48.80
2018-08-12T01:25:15.634Z,48.90
2018-08-12T01:27:47.185Z,48.80
2018-08-12T01:30:20.724Z,48.60
2018-08-12T01:32:52.371Z,48.60
2018-08-12T01:35:23.796Z,49.60
2018-08-12T01:37:55.450Z,48.80
2018-08-12T01:40:26.847Z,48.30
2018-08-12T01:42:58.813Z,48.90
2018-08-12T01:45:30.319Z,48.40
2018-08-12T01:48:01.830Z,48.50
2018-08-12T01:50:33.409Z,49.30
2018-08-12T01:53:04.891Z,48.50
2018-08-12T01:55:36.732Z,48.70
2018-08-12T01:58:08.587Z,48.70
2018-08-12T02:00:40.001Z,48.50
2018-08-12T02:03:11.686Z,48.90
2018-08-12T02:05:43.396Z,48.90
2018-08-12T02:08:14.896Z,49.00
2018-08-12T02:10:46.254Z,49.20
2018-08-12T02:13:17.792Z,48.90
2018-08-12T02:15:49.385Z,48.90
2018-08-12T02:18:21.214Z,48.70
2018-08-12T02:20:52.702Z,48.90
2018-08-12T02:23:24.217Z,48.90
2018-08-12T02:25:55.781Z,48.70
2018-08-12T02:28:27.412Z,49.00
2018-08-12T02:30:58.843Z,48.60
2018-08-12T02:33:30.262Z,49.70
2018-08-12T02:36:01.751Z,48.80
2018-08-12T02:38:33.299Z,49.10
2018-08-12T02:41:04.901Z,48.90
2018-08-12T02:43:36.580Z,49.30
2018-08-12T02:46:08.211Z,49.40
2018-08-12T02:48:40.192Z,49.10
2018-08-12T02:51:11.704Z,49.30
2018-08-12T02:53:43.199Z,49.40
2018-08-12T02:56:14.736Z,49.00
2018-08-12T02:58:46.323Z,49.40
2018-08-12T03:01:17.811Z,49.60
2018-08-12T03:03:49.379Z,49.40
2018-08-12T03:06:20.876Z,49.00
2018-08-12T03:08:52.425Z,49.70
2018-08-12T03:11:23.906Z,49.50
2018-08-12T03:13:54.616Z,49.40
2018-08-12T03:16:26.206Z,49.30
2018-08-12T03:18:57.701Z,49.40
2018-08-12T03:21:29.409Z,49.40
2018-08-12T03:24:00.764Z,49.40
2018-08-12T03:26:32.608Z,49.50
2018-08-12T03:29:04.315Z,49.20
2018-08-12T03:31:35.736Z,49.50
2018-08-12T03:34:07.350Z,49.40
2018-08-12T03:36:38.749Z,49.00
2018-08-12T03:39:13.392Z,49.50
2018-08-12T03:41:44.898Z,49.30
2018-08-12T03:44:16.415Z,49.70
2018-08-12T03:46:47.868Z,49.60
2018-08-12T03:49:19.528Z,49.50
2018-08-12T03:51:50.997Z,49.70
2018-08-12T03:54:22.780Z,49.60
2018-08-12T03:56:54.419Z,49.60
2018-08-12T03:59:25.940Z,49.20
2018-08-12T04:01:56.576Z,49.60
2018-08-12T04:04:28.208Z,49.80
2018-08-12T04:06:59.746Z,50.60
2018-08-12T04:09:31.433Z,50.00
2018-08-12T04:12:02.772Z,49.70
2018-08-12T04:19:36.803Z,49.20
2018-08-12T04:22:08.515Z,49.90
2018-08-12T04:24:40.225Z,49.70
2018-08-12T04:27:11.735Z,50.30
2018-08-12T04:34:46.756Z,49.50
2018-08-12T04:37:18.392Z,50.20
2018-08-12T04:39:50.198Z,50.00
2018-08-12T04:42:21.678Z,50.40
2018-08-12T04:44:53.215Z,50.50
2018-08-12T04:47:24.730Z,50.50
2018-08-12T04:49:56.563Z,50.60
2018-08-12T04:52:27.964Z,50.30
2018-08-12T04:54:58.550Z,50.40
2018-08-12T04:57:30.183Z,50.50
2018-08-12T05:00:01.704Z,50.30
2018-08-12T05:02:33.205Z,50.30
2018-08-12T05:05:04.710Z,50.00
2018-08-12T05:07:36.440Z,50.30
2018-08-12T05:10:09.330Z,50.10
2018-08-12T05:12:40.804Z,50.10
2018-08-12T05:15:12.304Z,50.40
2018-08-12T05:17:45.356Z,50.00
2018-08-12T05:20:16.856Z,50.30
2018-08-12T05:22:48.407Z,51.00
2018-08-12T05:25:19.985Z,50.20
2018-08-12T05:27:51.545Z,49.90
2018-08-12T05:30:22.895Z,50.10
2018-08-12T05:32:54.553Z,50.20
2018-08-12T05:35:26.189Z,50.00
2018-08-12T05:37:57.743Z,50.10
2018-08-12T05:40:29.432Z,49.90
2018-08-12T05:43:00.878Z,49.30
2018-08-12T05:45:32.449Z,49.60
2018-08-12T05:48:04.317Z,49.60
2018-08-12T05:50:36.371Z,49.80
2018-08-12T05:53:07.800Z,49.40
2018-08-12T05:55:39.429Z,49.00
2018-08-12T05:58:10.766Z,48.70
2018-08-12T06:00:42.308Z,48.90
2018-08-12T06:03:13.766Z,48.50
2018-08-12T06:10:47.214Z,47.60
2018-08-12T06:13:18.755Z,48.00
2018-08-12T06:20:53.214Z,47.40
2018-08-12T06:23:24.693Z,48.40
2018-08-12T06:25:56.212Z,48.40
2018-08-12T06:28:27.741Z,48.80
2018-08-12T06:30:59.289Z,48.60
2018-08-12T06:33:31.208Z,48.50
2018-08-12T06:36:02.706Z,48.90
2018-08-12T06:38:34.302Z,49.00
2018-08-12T06:41:06.319Z,48.90
2018-08-12T06:43:37.893Z,48.80
2018-08-12T06:46:09.422Z,48.70
2018-08-12T06:48:40.830Z,48.50
2018-08-12T06:51:12.378Z,48.50
2018-08-12T06:53:43.861Z,47.60
2018-08-12T06:56:15.580Z,47.90
2018-08-12T06:58:47.225Z,47.20
2018-08-12T07:01:18.746Z,47.80
2018-08-12T07:08:52.846Z,46.60
2018-08-12T07:11:24.477Z,47.20
2018-08-12T07:13:55.979Z,46.90
2018-08-12T07:16:27.640Z,47.90
2018-08-12T07:18:59.195Z,47.50
2018-08-12T07:21:30.725Z,47.40
2018-08-12T07:24:02.596Z,47.30
2018-08-12T07:26:34.309Z,46.70
2018-08-12T07:29:05.780Z,47.50
2018-08-12T07:31:37.317Z,47.10
2018-08-12T07:34:08.883Z,46.80
2018-08-12T07:36:40.897Z,47.00
2018-08-12T07:39:12.694Z,46.70
2018-08-12T07:41:44.693Z,46.80
2018-08-12T07:44:16.408Z,46.90
2018-08-12T07:46:47.798Z,46.70
2018-08-12T07:49:19.344Z,47.00
2018-08-12T07:51:50.770Z,46.50
2018-08-12T07:54:22.446Z,46.50
2018-08-12T07:56:54.200Z,46.30
2018-08-12T07:59:25.759Z,46.80
2018-08-12T08:01:57.422Z,46.80
2018-08-12T08:04:28.771Z,46.20
2018-08-12T08:07:00.433Z,46.80
2018-08-12T08:09:32.223Z,47.10
2018-08-12T08:12:03.763Z,47.90
2018-08-12T08:14:35.312Z,47.30
2018-08-12T08:17:06.824Z,47.10
2018-08-12T08:19:38.445Z,47.80
2018-08-12T08:22:10.193Z,47.20
2018-08-12T08:24:41.752Z,47.30
2018-08-12T08:27:13.699Z,47.30
2018-08-12T08:29:45.416Z,47.20
2018-08-12T08:32:17.092Z,47.50
2018-08-12T08:34:48.672Z,47.40
2018-08-12T08:37:19.855Z,47.40
2018-08-12T08:39:54.558Z,47.20
2018-08-12T08:42:26.218Z,47.20
2018-08-12T08:44:57.849Z,47.40
2018-08-12T08:47:29.543Z,47.60
2018-08-12T08:50:01.300Z,47.00
2018-08-12T08:52:33.294Z,47.50
2018-08-12T08:55:05.417Z,47.30
2018-08-12T08:57:37.208Z,47.20
2018-08-12T09:00:13.985Z,47.10
2018-08-12T09:02:46.874Z,47.30
2018-08-12T09:05:18.963Z,47.30
2018-08-12T09:07:51.224Z,47.60
2018-08-12T09:10:22.987Z,46.90
2018-08-12T09:12:54.684Z,46.90
2018-08-12T09:15:26.232Z,46.90
2018-08-12T09:17:57.781Z,46.90
2018-08-12T09:20:29.441Z,46.70
2018-08-12T09:23:01.455Z,46.30
2018-08-12T09:25:32.891Z,46.50
2018-08-12T09:28:03.621Z,46.30
2018-08-12T09:30:35.297Z,46.30
2018-08-12T09:33:07.202Z,46.30
2018-08-12T09:35:38.838Z,45.70
2018-08-12T09:38:10.308Z,46.00
2018-08-12T09:40:41.764Z,45.80
2018-08-12T09:43:13.449Z,45.30
2018-08-12T09:45:44.900Z,45.80
2018-08-12T09:48:15.593Z,45.90
2018-08-12T09:50:47.204Z,46.10
2018-08-12T09:53:18.725Z,45.80
2018-08-12T10:00:51.966Z,43.80
2018-08-12T10:03:23.636Z,45.30
2018-08-12T10:05:55.215Z,46.10
2018-08-12T10:08:26.682Z,46.00
2018-08-12T10:10:58.183Z,46.20
2018-08-12T10:13:29.762Z,46.00
2018-08-12T10:16:01.437Z,46.00
2018-08-12T10:18:33.624Z,45.90
2018-08-12T10:21:05.199Z,46.50
2018-08-12T10:23:37.218Z,46.50
2018-08-12T10:26:08.696Z,46.60
2018-08-12T10:28:40.318Z,47.00
2018-08-12T10:31:11.903Z,45.80
2018-08-12T10:33:42.577Z,45.20
2018-08-12T10:36:14.214Z,46.10
2018-08-12T10:38:45.699Z,46.60
2018-08-12T10:41:17.299Z,46.20
2018-08-12T10:43:48.797Z,46.90
2018-08-12T10:46:20.454Z,46.70
2018-08-12T10:48:52.045Z,45.80
2018-08-12T10:51:23.738Z,46.70
2018-08-12T10:53:55.354Z,46.50
2018-08-12T10:56:26.827Z,46.00
2018-08-12T10:58:58.460Z,46.40
2018-08-12T11:01:29.790Z,46.10
2018-08-12T11:04:01.424Z,46.50
2018-08-12T11:06:32.992Z,46.20
2018-08-12T11:09:05.392Z,46.10
2018-08-12T11:11:36.993Z,46.60
2018-08-12T11:14:08.766Z,45.80
2018-08-12T11:16:40.675Z,46.30
2018-08-12T11:19:12.208Z,45.90
2018-08-12T11:21:43.789Z,46.00
2018-08-12T11:24:15.356Z,46.20
2018-08-12T11:26:47.012Z,46.50
2018-08-12T11:29:18.689Z,46.70
2018-08-12T11:31:50.322Z,47.00
2018-08-12T11:34:21.739Z,46.70
2018-08-12T11:36:53.422Z,46.90
2018-08-12T11:39:24.857Z,46.30
2018-08-12T11:41:56.424Z,45.50
2018-08-12T11:44:27.902Z,45.60
2018-08-12T11:46:58.636Z,46.10
2018-08-12T11:49:30.215Z,46.40
2018-08-12T11:52:01.723Z,46.60
2018-08-12T11:54:33.368Z,46.70
2018-08-12T11:57:07.866Z,47.60
2018-08-12T11:59:39.452Z,46.70
2018-08-12T12:02:11.847Z,47.00
2018-08-12T12:04:43.680Z,47.40
2018-08-12T12:07:15.319Z,46.70
2018-08-12T12:09:46.813Z,47.40
2018-08-12T12:12:18.424Z,47.40
2018-08-12T12:14:49.986Z,46.90
2018-08-12T12:17:21.575Z,47.30
2018-08-12T12:19:53.235Z,47.30
2018-08-12T12:22:24.771Z,47.20
2018-08-12T12:25:02.768Z,47.20
2018-08-12T12:32:37.690Z,45.40
2018-08-12T12:35:09.356Z,46.40
2018-08-12T12:37:41.322Z,46.70
2018-08-12T12:40:15.606Z,46.10
2018-08-12T12:42:47.643Z,46.60
2018-08-12T12:45:19.362Z,46.50
2018-08-12T12:47:50.850Z,45.60
2018-08-12T12:50:24.816Z,46.20
2018-08-12T12:52:56.305Z,45.90
2018-08-12T12:55:27.852Z,45.80
2018-08-12T12:57:59.423Z,45.70
2018-08-12T13:00:31.006Z,45.60
2018-08-12T13:03:02.642Z,45.50
2018-08-12T13:05:34.217Z,45.20
2018-08-12T13:08:05.716Z,45.00
2018-08-12T13:10:37.316Z,45.20
2018-08-12T13:13:08.793Z,45.10
2018-08-12T13:15:40.363Z,45.70
2018-08-12T13:18:11.815Z,45.20
2018-08-12T13:20:43.448Z,46.30
2018-08-12T13:23:15.210Z,45.50
2018-08-12T13:25:46.764Z,46.10
2018-08-12T13:28:18.323Z,46.50
2018-08-12T13:30:49.984Z,45.80
2018-08-12T13:33:21.682Z,46.00
2018-08-12T13:35:53.221Z,45.50
2018-08-12T13:38:24.697Z,46.60
2018-08-12T13:41:01.281Z,46.50
2018-08-12T13:43:32.804Z,46.80
2018-08-12T13:46:04.379Z,45.80
2018-08-12T13:48:35.872Z,46.00
2018-08-12T13:51:07.487Z,46.90
2018-08-12T13:53:39.001Z,47.40
2018-08-12T13:56:10.644Z,46.60
2018-08-12T13:58:42.213Z,47.10
2018-08-12T14:01:13.752Z,47.00
2018-08-12T14:03:45.416Z,46.80
2018-08-12T14:06:16.726Z,46.70
2018-08-12T14:08:48.329Z,46.80
2018-08-12T14:14:24.848Z,47.30
2018-08-12T14:16:56.405Z,47.40
2018-08-12T14:19:28.228Z,47.00
2018-08-12T14:21:59.808Z,47.00
2018-08-12T14:24:31.411Z,46.80
2018-08-12T14:27:02.902Z,47.10
2018-08-12T14:29:33.607Z,47.10
2018-08-12T14:32:05.432Z,47.40
2018-08-12T14:34:36.907Z,45.00
2018-08-12T14:37:07.662Z,45.80
2018-08-12T14:39:39.302Z,46.60
2018-08-12T14:42:10.877Z,46.90
2018-08-12T14:44:42.615Z,46.90
2018-08-12T14:47:13.900Z,47.10
2018-08-12T14:49:45.344Z,46.80
2018-08-12T14:52:17.341Z,46.70
2018-08-12T14:54:48.909Z,45.70
2018-08-12T14:57:19.612Z,47.00
2018-08-12T14:59:51.216Z,46.00
2018-08-12T15:02:22.753Z,47.00
2018-08-12T15:09:56.867Z,45.90
2018-08-12T15:12:28.686Z,47.00
2018-08-12T15:15:00.486Z,46.70
2018-08-12T15:17:32.029Z,46.90
2018-08-12T15:20:03.723Z,47.30
2018-08-12T15:22:35.473Z,47.40
2018-08-12T15:25:09.319Z,47.20
2018-08-12T15:27:40.799Z,47.30
2018-08-12T15:32:43.813Z,47.30
2018-08-12T15:35:15.478Z,48.20
2018-08-12T15:37:47.021Z,47.20
2018-08-12T15:40:18.666Z,47.60
2018-08-12T15:42:50.511Z,47.70
2018-08-12T15:45:22.226Z,47.60
2018-08-12T15:55:23.707Z,47.70
2018-08-12T15:57:54.761Z,47.80
2018-08-12T16:00:25.800Z,47.80
2018-08-12T16:02:56.867Z,47.50
2018-08-12T16:05:28.385Z,47.50
2018-08-12T16:07:59.812Z,47.50
2018-08-12T16:10:31.775Z,48.20
2018-08-12T16:13:03.397Z,47.50
2018-08-12T16:15:34.869Z,47.50
2018-08-12T16:18:06.462Z,48.10
2018-08-12T16:20:37.765Z,47.80
2018-08-12T16:23:09.453Z,48.20
2018-08-12T16:25:40.794Z,47.90
2018-08-12T16:28:12.348Z,48.10
2018-08-12T16:30:44.460Z,47.90
2018-08-12T16:33:15.887Z,48.20
2018-08-12T16:35:47.591Z,48.30
2018-08-12T16:38:19.066Z,48.00
2018-08-12T16:40:50.675Z,48.40
2018-08-12T16:43:22.212Z,49.00
2018-08-12T16:45:53.704Z,48.30
2018-08-12T16:48:25.242Z,48.20
2018-08-12T16:50:56.711Z,48.30
2018-08-12T16:53:28.352Z,47.60
2018-08-12T16:55:59.800Z,46.80
2018-08-12T16:58:31.222Z,48.00
2018-08-12T17:01:02.769Z,47.60
2018-08-12T17:03:34.361Z,47.90
2018-08-12T17:06:05.834Z,47.30
2018-08-12T17:08:37.218Z,47.90
2018-08-12T17:11:08.703Z,47.80
2018-08-12T17:13:40.077Z,48.20
2018-08-12T17:16:11.703Z,48.30
2018-08-12T17:18:43.669Z,48.40
2018-08-12T17:21:15.338Z,48.40
2018-08-12T17:23:46.826Z,48.40
2018-08-12T17:26:18.388Z,48.50
2018-08-12T17:28:49.819Z,48.00
2018-08-12T17:31:21.429Z,48.40
2018-08-12T17:33:53.010Z,48.20
2018-08-12T17:36:24.654Z,48.60
2018-08-12T17:38:56.542Z,48.70
2018-08-12T17:41:28.196Z,48.30
2018-08-12T17:43:59.713Z,48.20
2018-08-12T17:46:31.365Z,48.10
2018-08-12T17:49:02.925Z,48.10
2018-08-12T17:51:33.594Z,48.20
2018-08-12T17:54:04.987Z,48.10
2018-08-12T17:56:36.694Z,48.20
2018-08-12T17:59:08.210Z,48.30
2018-08-12T18:01:39.681Z,48.30
2018-08-12T18:04:11.221Z,48.30
2018-08-12T18:06:43.230Z,48.30
2018-08-12T18:09:14.758Z,48.30
2018-08-12T18:11:46.209Z,48.30
2018-08-12T18:14:17.756Z,48.00
2018-08-12T18:16:49.220Z,48.20
2018-08-12T18:19:20.697Z,47.80
2018-08-12T18:21:51.932Z,48.10
2018-08-12T18:24:22.606Z,48.10
2018-08-12T18:26:54.294Z,48.10
2018-08-12T18:29:25.750Z,48.00
2018-08-12T18:31:57.202Z,48.00
2018-08-12T18:34:28.761Z,47.70
2018-08-12T18:42:02.243Z,47.50
2018-08-12T18:44:33.726Z,47.60
2018-08-12T18:47:05.301Z,47.80
2018-08-12T18:49:36.788Z,47.80
2018-08-12T18:52:08.326Z,47.70
2018-08-12T18:54:39.792Z,47.40
2018-08-12T18:57:11.336Z,47.60
2018-08-12T18:59:42.807Z,47.30
2018-08-12T19:02:14.303Z,47.40
2018-08-12T19:04:45.808Z,47.20
2018-08-12T19:07:17.221Z,47.60
2018-08-12T19:09:48.527Z,47.20
2018-08-12T19:12:19.644Z,47.50
2018-08-12T19:14:50.720Z,47.00
2018-08-12T19:17:22.218Z,47.30
2018-08-12T19:19:53.732Z,47.10
2018-08-12T19:22:25.324Z,47.40
2018-08-12T19:24:56.745Z,47.50
2018-08-12T19:27:28.226Z,47.60
2018-08-12T19:29:59.728Z,46.90
2018-08-12T19:32:31.201Z,47.60
2018-08-12T19:35:02.684Z,46.90
2018-08-12T19:37:34.399Z,47.60
2018-08-12T19:40:06.637Z,47.50
2018-08-12T19:42:38.211Z,47.00
2018-08-12T19:45:11.769Z,48.00
2018-08-12T19:47:43.382Z,47.40
2018-08-12T19:50:14.779Z,46.90
2018-08-12T19:52:46.217Z,47.40
2018-08-12T19:55:17.729Z,47.10
2018-08-12T20:00:59.742Z,47.30
2018-08-12T20:03:30.758Z,47.80
2018-08-12T20:06:02.576Z,48.00
2018-08-12T20:08:33.727Z,47.60
2018-08-12T20:11:04.817Z,48.30
2018-08-12T20:13:35.808Z,48.40
2018-08-12T20:16:06.795Z,48.20
2018-08-12T20:18:38.226Z,48.40
2018-08-12T20:21:09.746Z,48.60
2018-08-12T20:23:41.422Z,48.80
2018-08-12T20:26:12.781Z,47.70
2018-08-12T20:28:44.458Z,48.30
2018-08-12T20:31:15.900Z,47.30
2018-08-12T20:33:46.582Z,47.50
2018-08-12T20:36:17.981Z,47.50
2018-08-12T20:38:49.606Z,47.90
2018-08-12T20:41:21.014Z,47.50
2018-08-12T20:43:52.739Z,47.00
2018-08-12T20:46:24.319Z,47.00
2018-08-12T20:48:56.211Z,47.10
2018-08-12T20:51:27.728Z,47.30
2018-08-12T20:53:59.300Z,47.50
2018-08-12T20:56:30.747Z,48.10
2018-08-12T20:59:02.396Z,47.80
2018-08-12T21:01:34.035Z,47.70
2018-08-12T21:04:05.661Z,48.20
2018-08-12T21:06:37.367Z,48.30
2018-08-12T21:09:11.728Z,48.50
2018-08-12T21:11:43.402Z,48.30
2018-08-12T21:14:14.833Z,48.80
2018-08-12T21:16:46.301Z,48.50
2018-08-12T21:19:17.673Z,48.00
2018-08-12T21:21:48.991Z,48.40
2018-08-12T21:24:20.612Z,48.90
2018-08-12T21:26:52.208Z,48.10
2018-08-12T21:29:23.716Z,48.20
2018-08-12T21:31:55.310Z,48.20
2018-08-12T21:34:26.725Z,48.30
2018-08-12T21:36:58.386Z,48.30
2018-08-12T21:39:29.775Z,48.10
2018-08-12T21:42:01.300Z,48.30
2018-08-12T21:44:33.224Z,47.90
2018-08-12T21:47:04.681Z,48.00
2018-08-12T21:49:36.337Z,48.20
2018-08-12T21:52:07.743Z,48.20
2018-08-12T21:54:39.313Z,48.20
2018-08-12T21:57:10.753Z,48.00
2018-08-12T21:59:42.301Z,48.50
2018-08-12T22:02:13.713Z,47.90
2018-08-12T22:04:45.226Z,48.40
2018-08-12T22:07:16.758Z,48.60
2018-08-12T22:09:48.315Z,48.20
2018-08-12T22:12:19.694Z,48.00
2018-08-12T22:14:50.972Z,48.10
2018-08-12T22:17:22.356Z,48.00
2018-08-12T22:19:53.752Z,47.60
2018-08-12T22:22:25.729Z,47.80
2018-08-12T22:24:57.195Z,47.90
2018-08-12T22:27:28.700Z,48.30
2018-08-12T22:30:00.335Z,48.10
2018-08-12T22:32:31.765Z,48.30
2018-08-12T22:35:03.313Z,48.30
2018-08-12T22:37:34.774Z,47.90
2018-08-12T22:40:07.688Z,47.90
2018-08-12T22:42:39.214Z,47.50
2018-08-12T22:45:12.378Z,47.90
2018-08-12T22:47:43.741Z,48.20
2018-08-12T22:50:15.425Z,48.10
2018-08-12T22:52:46.851Z,47.80
2018-08-12T22:55:18.381Z,48.00
2018-08-12T22:57:49.716Z,47.60
2018-08-12T23:00:21.913Z,47.90
2018-08-12T23:02:52.521Z,47.60
2018-08-12T23:05:23.879Z,48.20
2018-08-12T23:07:55.534Z,48.10
2018-08-12T23:10:26.709Z,48.00
2018-08-12T23:12:58.300Z,47.90
2018-08-12T23:16:54.702Z,48.00
2018-08-12T23:19:25.975Z,48.20
2018-08-12T23:21:57.395Z,48.10
2018-08-12T23:24:28.782Z,48.10
2018-08-12T23:27:00.313Z,48.20
2018-08-12T23:29:31.805Z,48.10
2018-08-12T23:32:03.313Z,48.00
2018-08-12T23:34:34.780Z,47.90
2018-08-12T23:37:06.712Z,48.20
2018-08-12T23:39:38.696Z,47.90
2018-08-12T23:42:10.197Z,48.50
2018-08-12T23:44:41.680Z,48.20
2018-08-12T23:47:12.993Z,48.10
2018-08-12T23:49:44.517Z,48.40
2018-08-12T23:52:15.856Z,48.40
2018-08-12T23:54:47.396Z,48.10
2018-08-12T23:57:18.789Z,47.80
